Time;durP1;ratioP1;P1;durP2;ratioP2;P2;SDS_P1;SDS_P2;PMS_P1;PMS_P2;Temp;Humidity;BMP_temperature;BMP_pressure;BME280_temperature;BME280_humidity;BME280_pressure;Samples;Min_cycle;Max_cycle;Signal;HPM_P1;HPM_P2
2022/10/04 00:02:27;;;;;;;2.50;1.83;;;7.10;99.90;8.20;97388.00;;;;5075712;28;20185;-91
2022/10/04 00:05:22;;;;;;;3.47;1.83;;;7.10;99.90;8.00;97385.00;;;;5061788;28;20867;-90
2022/10/04 00:08:27;;;;;;;2.00;1.80;;;7.00;99.90;8.00;97388.00;;;;5074523;28;20196;-92
2022/10/04 00:11:23;;;;;;;2.20;1.97;;;7.00;99.90;8.00;97373.00;;;;5074331;28;20232;-91
2022/10/04 00:14:19;;;;;;;2.23;1.87;;;7.00;99.90;8.00;97372.00;;;;5073688;28;20223;-89
2022/10/04 00:17:13;;;;;;;3.23;1.73;;;6.90;99.90;8.00;97373.00;;;;5061945;28;20201;-91
2022/10/04 00:20:04;;;;;;;5.70;2.17;;;6.80;99.90;7.90;97377.00;;;;5072923;28;20248;-89
2022/10/04 00:23:30;;;;;;;3.03;2.83;;;6.90;99.90;7.70;97381.00;;;;5073733;28;20235;-91
2022/10/04 00:27:12;;;;;;;1.73;1.63;;;6.80;99.90;7.90;97374.00;;;;5069517;28;20228;-90
2022/10/04 00:30:23;;;;;;;2.47;1.93;;;6.70;99.90;7.80;97380.00;;;;5059636;28;20239;-92
2022/10/04 00:33:11;;;;;;;2.10;1.73;;;6.70;99.90;7.60;97381.00;;;;5070352;28;20259;-91
2022/10/04 00:36:00;;;;;;;4.57;2.20;;;6.70;99.90;7.40;97374.00;;;;5066386;28;20212;-88
2022/10/04 00:39:15;;;;;;;2.37;2.27;;;6.60;99.90;7.40;97367.00;;;;5076013;28;20191;-90
2022/10/04 00:42:43;;;;;;;3.47;2.23;;;6.50;99.90;7.70;97385.00;;;;5066876;28;20216;-93
2022/10/04 00:45:37;;;;;;;2.50;1.77;;;6.50;99.90;7.50;97377.00;;;;5067158;28;20188;-91
2022/10/04 00:48:36;;;;;;;4.17;1.90;;;6.50;99.90;7.50;97380.00;;;;5073905;28;20274;-91
2022/10/04 00:51:29;;;;;;;2.57;1.67;;;7.70;99.90;7.10;97380.00;;;;5074019;28;20208;-92
2022/10/04 00:54:26;;;;;;;2.93;1.90;;;6.40;99.90;7.40;97376.00;;;;5071579;28;20239;-91
2022/10/04 00:57:21;;;;;;;3.90;2.40;;;6.30;99.90;7.20;97372.00;;;;5075403;28;20208;-89
2022/10/04 01:00:15;;;;;;;6.43;1.67;;;6.30;99.90;7.30;97365.00;;;;5074593;28;20232;-92
2022/10/04 01:03:10;;;;;;;2.63;2.43;;;6.20;99.90;7.20;97379.00;;;;5072008;28;20196;-89
2022/10/04 01:06:04;;;;;;;2.43;1.83;;;6.20;99.90;7.20;97374.00;;;;5065007;28;20231;-90
2022/10/04 01:08:56;;;;;;;3.07;2.10;;;6.20;99.90;7.20;97375.00;;;;5050623;28;20201;-88
2022/10/04 01:11:29;;;;;;;4.00;2.10;;;6.20;99.90;7.40;97382.00;;;;5064801;23;20240;-69
2022/10/04 01:14:30;;;;;;;6.83;2.13;;;6.20;99.90;7.40;97376.00;;;;5044469;28;20201;-68
2022/10/04 01:17:19;;;;;;;3.97;1.60;;;6.20;99.90;7.30;97378.00;;;;5041241;28;20201;-69
2022/10/04 01:20:33;;;;;;;2.73;2.30;;;6.40;99.90;7.20;97369.00;;;;5029465;28;20308;-69
2022/10/04 01:23:45;;;;;;;1.93;1.70;;;6.20;99.90;7.00;97375.00;;;;5025525;28;20204;-69
2022/10/04 01:26:42;;;;;;;2.30;1.93;;;6.20;99.90;7.00;97371.00;;;;5023361;28;20196;-69
2022/10/04 01:29:32;;;;;;;2.77;2.37;;;6.10;99.90;7.10;97370.00;;;;5048981;28;20303;-69
2022/10/04 01:32:21;;;;;;;3.73;2.37;;;6.10;99.90;7.20;97367.00;;;;5048865;28;20204;-69
2022/10/04 01:35:13;;;;;;;2.87;1.93;;;6.10;99.90;6.90;97365.00;;;;5023341;28;20284;-69
2022/10/04 01:38:05;;;;;;;2.30;2.10;;;6.10;99.90;6.90;97358.00;;;;5023213;28;20301;-69
2022/10/04 01:41:01;;;;;;;4.77;2.10;;;6.10;99.90;6.70;97356.00;;;;5020656;28;20261;-69
2022/10/04 01:43:54;;;;;;;5.27;1.87;;;5.90;99.90;6.60;97355.00;;;;5043015;28;20637;-69
2022/10/04 01:46:43;;;;;;;2.13;1.60;;;5.80;99.90;6.60;97354.00;;;;5050065;28;20200;-69
2022/10/04 01:49:34;;;;;;;2.30;2.10;;;5.70;99.90;6.80;97361.00;;;;5032583;28;20214;-69
2022/10/04 01:52:29;;;;;;;3.13;1.57;;;5.80;99.90;6.80;97359.00;;;;5029484;28;20287;-69
2022/10/04 01:55:23;;;;;;;2.03;1.60;;;5.80;99.90;6.60;97354.00;;;;5021763;28;20202;-69
2022/10/04 01:58:18;;;;;;;2.00;1.83;;;5.80;99.90;6.70;97358.00;;;;5034083;28;20761;-69
2022/10/04 02:01:13;;;;;;;3.73;2.07;;;5.80;99.90;6.40;97354.00;;;;5048500;28;20252;-69
2022/10/04 02:04:08;;;;;;;4.47;2.20;;;5.70;99.90;6.50;97356.00;;;;5049408;28;20200;-69
2022/10/04 02:07:00;;;;;;;2.93;2.10;;;5.60;99.90;6.50;97344.00;;;;5049160;28;20205;-69
2022/10/04 02:09:55;;;;;;;5.50;2.60;;;5.60;99.90;6.60;97346.00;;;;5048471;28;20326;-69
2022/10/04 02:12:47;;;;;;;2.70;2.50;;;5.90;99.90;6.50;97351.00;;;;5033252;28;20427;-69
2022/10/04 02:15:38;;;;;;;5.13;2.40;;;5.60;99.90;6.70;97354.00;;;;5029417;28;20244;-69
2022/10/04 02:18:28;;;;;;;2.33;2.13;;;5.50;99.90;6.50;97355.00;;;;5028486;28;20221;-69
2022/10/04 02:21:19;;;;;;;1.77;1.50;;;5.60;99.90;6.40;97348.00;;;;5029061;28;20710;-69
2022/10/04 02:24:11;;;;;;;2.33;2.13;;;5.50;99.90;6.20;97365.00;;;;5025128;28;20272;-70
2022/10/04 02:26:59;;;;;;;7.93;1.93;;;5.50;99.90;6.30;97370.00;;;;5025423;28;20209;-70
2022/10/04 02:29:48;;;;;;;2.40;2.20;;;5.40;99.90;6.40;97363.00;;;;5021219;28;20201;-70
2022/10/04 02:32:59;;;;;;;3.30;2.50;;;5.40;99.90;6.50;97364.00;;;;5031683;28;20209;-69
2022/10/04 02:35:49;;;;;;;2.83;2.17;;;5.40;99.90;6.20;97366.00;;;;5027277;28;20205;-69
2022/10/04 02:38:42;;;;;;;2.60;2.37;;;5.40;99.90;6.20;97360.00;;;;5024226;28;20214;-70
2022/10/04 02:41:35;;;;;;;3.93;2.13;;;5.40;99.90;6.30;97362.00;;;;5037703;28;20327;-69
2022/10/04 02:44:29;;;;;;;2.17;1.90;;;5.30;99.90;6.20;97355.00;;;;5021455;28;20212;-69
2022/10/04 02:47:21;;;;;;;5.23;2.20;;;5.00;99.90;6.00;97356.00;;;;5051332;28;20560;-69
2022/10/04 02:50:26;;;;;;;5.20;2.40;;;5.30;99.90;5.60;97360.00;;;;5028754;28;20295;-70
2022/10/04 02:53:25;;;;;;;2.87;2.57;;;5.20;99.90;5.90;97359.00;;;;5024843;28;20279;-70
2022/10/04 02:56:14;;;;;;;2.90;2.20;;;5.10;99.90;5.90;97350.00;;;;5018599;28;20637;-70
2022/10/04 02:59:05;;;;;;;3.03;1.93;;;5.10;99.90;6.20;97368.00;;;;5020382;28;20240;-70
2022/10/04 03:01:56;;;;;;;5.10;1.93;;;5.10;99.90;6.20;97350.00;;;;5032298;28;20606;-69
2022/10/04 03:04:45;;;;;;;5.07;2.13;;;5.10;99.90;6.10;97355.00;;;;5032989;28;20204;-70
2022/10/04 03:07:36;;;;;;;4.33;2.83;;;5.20;99.90;5.70;97345.00;;;;5031226;28;20225;-69
2022/10/04 03:10:25;;;;;;;3.47;1.90;;;5.10;99.90;5.70;97343.00;;;;5018215;28;20213;-69
2022/10/04 03:13:15;;;;;;;1.77;1.67;;;5.10;99.90;5.50;97337.00;;;;5018604;28;20444;-69
2022/10/04 03:16:05;;;;;;;2.60;2.40;;;5.00;99.90;5.80;97350.00;;;;5030068;28;20336;-69
2022/10/04 03:18:57;;;;;;;3.10;2.43;;;5.00;99.90;6.00;97350.00;;;;5050794;28;20225;-68
2022/10/04 03:21:49;;;;;;;3.50;2.23;;;5.00;99.90;5.70;97348.00;;;;5050651;28;20263;-69
2022/10/04 03:24:46;;;;;;;5.77;2.50;;;5.00;99.90;5.80;97339.00;;;;5051655;28;20205;-69
2022/10/04 03:27:36;;;;;;;4.20;2.43;;;5.10;99.90;5.80;97348.00;;;;5027083;28;20206;-69
2022/10/04 03:30:25;;;;;;;3.97;2.23;;;4.90;99.90;5.70;97339.00;;;;5031584;28;20714;-69
2022/10/04 03:33:19;;;;;;;4.70;2.13;;;4.90;99.90;5.50;97338.00;;;;5032325;28;20208;-70
2022/10/04 03:36:15;;;;;;;2.73;2.50;;;4.80;99.90;5.20;97334.00;;;;5025393;28;20258;-69
2022/10/04 03:39:10;;;;;;;2.70;2.10;;;4.70;99.90;5.10;97339.00;;;;5040071;28;20220;-70
2022/10/04 03:42:04;;;;;;;1.70;1.60;;;4.60;99.90;4.90;97335.00;;;;5022995;28;20225;-70
2022/10/04 03:44:55;;;;;;;6.90;2.37;;;4.50;99.90;5.20;97346.00;;;;5029498;28;20209;-73
2022/10/04 03:47:47;;;;;;;3.50;2.20;;;4.50;99.90;5.30;97339.00;;;;5030642;28;20282;-68
2022/10/04 03:50:42;;;;;;;3.40;1.90;;;4.50;99.90;5.30;97339.00;;;;5024703;28;20205;-69
2022/10/04 03:53:36;;;;;;;3.53;2.43;;;4.60;99.90;5.20;97344.00;;;;5036271;28;20883;-69
2022/10/04 03:56:30;;;;;;;7.13;2.50;;;4.50;99.90;5.30;97341.00;;;;5019936;28;20425;-69
2022/10/04 03:59:24;;;;;;;3.90;2.93;;;5.30;99.90;5.50;97353.00;;;;5046522;28;20624;-70
2022/10/04 04:02:19;;;;;;;5.60;2.93;;;4.60;99.90;5.50;97346.00;;;;5020971;28;20699;-70
2022/10/04 04:05:16;;;;;;;4.60;3.17;;;4.70;99.90;5.90;97351.00;;;;5031249;28;20432;-70
2022/10/04 04:08:13;;;;;;;4.97;3.20;;;4.80;99.90;5.50;97346.00;;;;5030492;28;20272;-69
2022/10/04 04:11:04;;;;;;;4.90;2.43;;;4.70;99.90;5.20;97345.00;;;;5034343;28;20205;-69
2022/10/04 04:14:03;;;;;;;4.47;2.20;;;4.70;99.90;5.10;97346.00;;;;5021947;28;20221;-69
2022/10/04 04:16:55;;;;;;;3.30;2.00;;;4.60;99.90;5.00;97344.00;;;;5024836;28;20280;-69
2022/10/04 04:19:45;;;;;;;3.70;2.27;;;4.50;99.90;5.20;97355.00;;;;5025576;28;20222;-69
2022/10/04 04:22:35;;;;;;;3.10;2.10;;;4.50;99.90;4.90;97350.00;;;;5025503;28;20229;-69
2022/10/04 04:25:26;;;;;;;4.20;2.53;;;4.40;99.90;5.20;97354.00;;;;5023789;28;20433;-70
2022/10/04 04:28:27;;;;;;;2.33;2.13;;;4.30;99.90;5.40;97350.00;;;;5026750;28;20263;-70
2022/10/04 04:31:22;;;;;;;5.47;2.40;;;4.40;99.90;5.50;97351.00;;;;5022037;28;20419;-69
2022/10/04 04:34:21;;;;;;;2.83;2.33;;;4.50;99.90;5.30;97346.00;;;;5028382;28;20209;-69
2022/10/04 04:37:11;;;;;;;2.83;2.63;;;4.50;99.90;5.30;97354.00;;;;5027725;28;20237;-69
2022/10/04 04:40:19;;;;;;;2.93;2.70;;;4.50;99.90;5.20;97355.00;;;;5025555;28;20439;-70
2022/10/04 04:43:18;;;;;;;5.53;2.90;;;4.50;99.90;5.30;97352.00;;;;5024575;28;20696;-69
2022/10/04 04:46:11;;;;;;;3.37;2.60;;;4.50;99.90;5.50;97360.00;;;;5019076;28;20202;-69
2022/10/04 04:49:18;;;;;;;4.33;2.63;;;4.50;99.90;5.40;97362.00;;;;5025330;28;20271;-70
2022/10/04 04:52:16;;;;;;;5.57;2.97;;;4.60;99.90;5.10;97361.00;;;;5025776;28;20232;-71
2022/10/04 04:55:07;;;;;;;4.57;2.80;;;4.50;99.90;5.10;97362.00;;;;5030687;28;20432;-70
2022/10/04 04:57:58;;;;;;;4.53;2.80;;;4.40;99.90;5.30;97366.00;;;;5025579;28;20229;-70
2022/10/04 05:00:55;;;;;;;2.93;2.33;;;4.40;99.90;5.00;97355.00;;;;5026975;28;20585;-70
2022/10/04 05:03:44;;;;;;;4.10;3.20;;;4.40;99.90;5.30;97367.00;;;;5034222;28;20228;-70
2022/10/04 05:06:37;;;;;;;6.57;3.10;;;4.40;99.90;5.70;97368.00;;;;5027063;28;20194;-69
2022/10/04 05:09:30;;;;;;;5.17;3.47;;;4.50;99.90;5.60;97360.00;;;;5018909;28;20449;-70
2022/10/04 05:12:22;;;;;;;8.97;2.27;;;4.50;99.90;5.60;97375.00;;;;5020212;28;20437;-69
2022/10/04 05:15:11;;;;;;;4.20;3.23;;;4.60;99.90;5.50;97379.00;;;;5027389;28;20876;-69
2022/10/04 05:18:00;;;;;;;3.27;2.97;;;4.60;99.90;5.80;97389.00;;;;5019749;28;20224;-69
2022/10/04 05:20:53;;;;;;;4.20;3.67;;;4.60;99.90;6.00;97386.00;;;;5024172;28;20205;-69
2022/10/04 05:23:43;;;;;;;3.97;3.27;;;4.70;99.90;5.90;97394.00;;;;5016265;28;20712;-69
2022/10/04 05:26:32;;;;;;;2.37;2.20;;;4.80;99.90;5.50;97393.00;;;;5027611;28;20201;-70
2022/10/04 05:29:24;;;;;;;3.23;2.90;;;4.70;99.90;5.10;97384.00;;;;5032448;28;20234;-70
2022/10/04 05:32:28;;;;;;;4.23;2.83;;;4.50;99.90;5.20;97398.00;;;;5024560;28;20247;-70
2022/10/04 05:35:19;;;;;;;3.60;3.30;;;4.50;99.90;5.60;97399.00;;;;5042847;28;20262;-69
2022/10/04 05:38:18;;;;;;;5.03;2.97;;;4.60;99.90;5.60;97394.00;;;;5045925;28;20295;-69
2022/10/04 05:41:14;;;;;;;3.50;3.20;;;4.60;99.90;5.70;97390.00;;;;5012331;28;20240;-70
2022/10/04 05:44:24;;;;;;;4.77;2.57;;;4.70;99.90;5.40;97395.00;;;;5028709;28;21070;-70
2022/10/04 05:47:15;;;;;;;3.47;2.03;;;4.80;99.90;5.20;97384.00;;;;5022075;28;20204;-69
2022/10/04 05:50:04;;;;;;;3.10;2.23;;;4.80;99.90;5.60;97390.00;;;;5022826;28;20194;-70
2022/10/04 05:53:09;;;;;;;4.33;2.27;;;4.80;99.90;6.10;97383.00;;;;5026016;28;20420;-70
2022/10/04 05:56:12;;;;;;;4.80;2.60;;;4.90;99.90;6.10;97385.00;;;;5021467;28;20255;-70
2022/10/04 05:59:14;;;;;;;2.60;2.10;;;5.00;99.90;5.70;97382.00;;;;5024286;28;20347;-70
2022/10/04 06:02:16;;;;;;;3.10;2.80;;;5.00;99.90;5.40;97377.00;;;;5024641;28;20213;-70
2022/10/04 06:05:18;;;;;;;4.23;2.30;;;4.90;99.90;5.60;97385.00;;;;5021418;28;20676;-69
2022/10/04 06:08:17;;;;;;;3.77;2.13;;;4.90;99.90;5.80;97388.00;;;;5047570;28;20305;-72
2022/10/04 06:11:19;;;;;;;5.70;3.17;;;4.90;99.90;6.40;97401.00;;;;5048440;28;20756;-68
2022/10/04 06:14:47;;;;;;;7.27;3.33;;;5.00;99.90;5.90;97402.00;;;;5026621;28;20201;-70
2022/10/04 06:17:55;;;;;;;2.37;2.20;;;5.10;99.90;5.50;97406.00;;;;5022735;28;20593;-71
2022/10/04 06:21:02;;;;;;;2.13;2.00;;;4.90;99.90;5.60;97411.00;;;;5019631;28;20276;-69
2022/10/04 06:24:02;;;;;;;4.17;2.90;;;4.90;99.90;5.80;97417.00;;;;5025638;28;20239;-68
2022/10/04 06:26:56;;;;;;;7.43;2.27;;;5.00;99.90;5.80;97411.00;;;;5019390;28;20228;-68
2022/10/04 06:29:51;;;;;;;2.80;2.53;;;5.00;99.90;6.00;97420.00;;;;5016665;28;20283;-69
2022/10/04 06:33:21;;;;;;;3.13;2.73;;;5.00;99.90;6.20;97411.00;;;;5023681;28;20209;-69
2022/10/04 06:36:46;;;;;;;2.13;2.03;;;5.20;99.90;6.10;97413.00;;;;5022710;28;20256;-67
2022/10/04 06:39:59;;;;;;;2.60;2.40;;;5.30;99.90;6.60;97420.00;;;;5024231;28;20225;-68
2022/10/04 06:43:18;;;;;;;2.27;2.03;;;5.40;99.90;6.40;97418.00;;;;5029667;28;20252;-69
2022/10/04 06:46:17;;;;;;;2.70;2.50;;;5.50;99.90;6.30;97416.00;;;;5018540;28;20243;-70
2022/10/04 06:49:32;;;;;;;6.13;2.87;;;5.50;99.90;6.40;97422.00;;;;5025013;28;20225;-71
2022/10/04 06:52:39;;;;;;;3.47;2.77;;;5.60;99.90;6.80;97422.00;;;;5022728;28;20282;-70
2022/10/04 06:56:01;;;;;;;4.30;2.80;;;5.70;99.90;7.00;97422.00;;;;5032778;28;20215;-70
2022/10/04 06:59:20;;;;;;;4.80;2.60;;;5.80;99.90;7.30;97423.00;;;;5037621;23;20289;-89
2022/10/04 07:02:17;;;;;;;4.67;2.17;;;6.40;99.90;7.40;97427.00;;;;5040849;28;20200;-89
2022/10/04 07:05:29;;;;;;;5.53;2.70;;;6.30;99.90;7.80;97437.00;;;;5040514;28;20204;-89
2022/10/04 07:08:31;;;;;;;4.80;3.00;;;6.40;99.90;8.00;97426.00;;;;5038084;28;20201;-90
2022/10/04 07:11:25;;;;;;;3.67;2.43;;;6.80;99.90;8.10;97437.00;;;;5068247;22;20239;-77
2022/10/04 07:14:21;;;;;;;2.10;1.90;;;6.70;99.90;8.30;97430.00;;;;5050861;28;20230;-77
2022/10/04 07:17:14;;;;;;;6.23;2.80;;;6.90;99.90;8.20;97444.00;;;;5048207;28;20238;-77
2022/10/04 07:20:06;;;;;;;3.17;2.60;;;7.00;99.90;8.40;97438.00;;;;5039781;28;20232;-77
2022/10/04 07:23:00;;;;;;;2.50;2.30;;;7.20;99.90;8.90;97435.00;;;;5039303;28;20259;-77
2022/10/04 07:25:55;;;;;;;4.70;2.30;;;7.40;99.90;9.40;97436.00;;;;5031569;28;20248;-77
2022/10/04 07:32:03;;;;;;;2.97;2.77;;;7.80;99.90;9.80;97451.00;;;;5035194;28;20201;-75
2022/10/04 07:35:01;;;;;;;3.40;2.97;;;8.10;99.90;10.20;97446.00;;;;5031369;28;20283;-77
2022/10/04 07:37:58;;;;;;;7.43;3.53;;;8.80;99.90;10.70;97458.00;;;;5033264;28;20594;-77
2022/10/04 07:41:03;;;;;;;5.27;2.93;;;8.70;99.90;11.00;97458.00;;;;5034036;28;20228;-78
2022/10/04 07:43:57;;;;;;;5.17;4.23;;;9.00;99.90;11.40;97457.00;;;;5032268;28;20263;-78
2022/10/04 07:46:53;;;;;;;4.33;3.87;;;9.30;99.90;11.30;97465.00;;;;5043652;28;20259;-78
2022/10/04 07:49:42;;;;;;;4.07;2.40;;;9.50;99.90;11.60;97470.00;;;;5042938;28;20285;-78
2022/10/04 07:52:48;;;;;;;4.77;2.80;;;9.70;99.90;11.80;97468.00;;;;5036653;28;20201;-78
2022/10/04 07:55:56;;;;;;;3.87;3.47;;;9.90;99.90;11.80;97478.00;;;;5025267;28;20224;-78
2022/10/04 07:58:54;;;;;;;7.27;2.67;;;10.10;99.90;11.70;97478.00;;;;5028722;28;20236;-78
2022/10/04 08:01:48;;;;;;;3.57;2.40;;;10.20;99.90;12.00;97468.00;;;;5027057;28;20197;-78
2022/10/04 08:04:47;;;;;;;5.07;3.03;;;10.30;99.90;12.10;97475.00;;;;5035198;28;20243;-78
2022/10/04 08:07:51;;;;;;;6.50;2.90;;;10.40;99.90;12.60;97471.00;;;;5033825;28;20205;-78
2022/10/04 08:10:50;;;;;;;6.53;2.83;;;10.60;99.90;12.90;97471.00;;;;5027675;28;20746;-77
2022/10/04 08:13:52;;;;;;;8.73;3.30;;;10.80;99.90;13.10;97473.00;;;;5030795;28;20208;-77
2022/10/04 08:16:59;;;;;;;2.93;2.63;;;11.10;99.90;13.30;97473.00;;;;5026313;28;20202;-78
2022/10/04 08:20:02;;;;;;;10.83;3.07;;;11.30;99.90;13.40;97474.00;;;;5025381;28;20292;-78
2022/10/04 08:23:04;;;;;;;8.50;2.90;;;11.60;99.90;13.50;97471.00;;;;5044633;28;20258;-78
2022/10/04 08:26:07;;;;;;;5.43;3.00;;;11.70;99.90;13.60;97474.00;;;;5032066;28;20730;-77
2022/10/04 08:32:31;;;;;;;2.97;2.57;;;11.90;99.90;13.50;97482.00;;;;5027504;28;20610;-78
2022/10/04 08:35:36;;;;;;;4.63;2.50;;;12.00;99.90;13.60;97473.00;;;;5036903;28;20205;-77
2022/10/04 08:38:47;;;;;;;4.87;2.30;;;12.00;99.90;13.80;97469.00;;;;5033887;28;20275;-78
2022/10/04 08:42:22;;;;;;;2.63;2.37;;;12.00;99.90;14.00;97476.00;;;;5024546;28;20225;-77
2022/10/04 08:45:57;;;;;;;8.10;2.70;;;12.20;99.90;14.30;97470.00;;;;5031900;28;20213;-78
2022/10/04 08:49:50;;;;;;;2.87;2.27;;;12.30;99.90;14.50;97483.00;;;;5037740;28;20580;-78
2022/10/04 08:53:42;;;;;;;5.70;3.00;;;12.60;99.90;14.70;97475.00;;;;5033750;28;20213;-78
2022/10/04 08:56:57;;;;;;;4.43;2.97;;;11.60;99.90;15.00;97470.00;;;;5029534;28;20198;-78
2022/10/04 09:00:15;;;;;;;5.07;2.63;;;13.00;99.90;15.20;97464.00;;;;5020323;28;20292;-78
2022/10/04 09:04:20;;;;;;;5.80;1.93;;;13.30;99.90;15.50;97472.00;;;;5032923;28;20259;-78
2022/10/04 09:07:57;;;;;;;2.80;2.40;;;13.40;99.90;15.60;97460.00;;;;5042569;28;20204;-78
2022/10/04 09:11:15;;;;;;;3.60;1.90;;;13.60;99.90;15.80;97464.00;;;;5030185;28;20216;-78
2022/10/04 09:14:33;;;;;;;4.77;2.30;;;13.90;99.90;15.60;97459.00;;;;5034865;28;20211;-78
2022/10/04 09:17:32;;;;;;;3.53;2.07;;;14.00;99.90;15.60;97461.00;;;;5028717;28;20198;-77
2022/10/04 09:20:31;;;;;;;3.87;1.80;;;14.10;99.90;16.30;97458.00;;;;5032228;28;20267;-77
2022/10/04 09:24:17;;;;;;;9.10;2.60;;;14.30;99.90;16.90;97462.00;;;;5033145;28;20201;-78
2022/10/04 09:27:30;;;;;;;4.53;1.87;;;14.60;99.90;17.30;97452.00;;;;5029599;28;20205;-77
2022/10/04 09:30:54;;;;;;;5.70;2.03;;;14.90;99.90;17.50;97454.00;;;;5028845;28;20213;-79
2022/10/04 09:34:06;;;;;;;4.63;1.80;;;15.20;99.90;17.80;97454.00;;;;5029506;28;20581;-79
2022/10/04 09:37:35;;;;;;;2.17;1.47;;;15.50;99.90;18.10;97451.00;;;;5040351;28;20251;-79
2022/10/04 09:41:02;;;;;;;2.30;1.57;;;15.80;99.90;18.30;97453.00;;;;5040313;28;20200;-79
2022/10/04 09:45:01;;;;;;;4.90;1.60;;;16.10;99.90;18.30;97451.00;;;;5035303;28;20208;-79
2022/10/04 09:48:09;;;;;;;1.43;1.33;;;16.30;99.90;18.50;97458.00;;;;4936761;29;20205;-79
2022/10/04 09:51:30;;;;;;;2.27;1.53;;;16.40;99.90;18.90;97448.00;;;;5038048;28;20227;-79
2022/10/04 09:55:05;;;;;;;4.37;1.40;;;16.60;99.90;19.30;97448.00;;;;5039486;28;20201;-79
2022/10/04 09:58:16;;;;;;;2.50;1.50;;;17.20;99.90;19.40;97455.00;;;;4994213;28;20212;-79
2022/10/04 10:01:15;;;;;;;1.57;1.47;;;17.10;99.90;19.70;97446.00;;;;5040953;28;20197;-78
2022/10/04 10:04:40;;;;;;;3.40;1.33;;;17.40;99.90;19.20;97441.00;;;;5042119;28;20209;-79
2022/10/04 10:07:46;;;;;;;2.20;1.00;;;17.50;99.90;18.60;97443.00;;;;5038002;28;20222;-79
2022/10/04 10:14:45;;;;;;;1.30;1.20;;;17.30;98.00;18.90;97439.00;;;;5037410;28;20202;-79
2022/10/04 10:17:48;;;;;;;2.00;1.50;;;17.20;98.60;18.60;97439.00;;;;5034505;28;20209;-80
2022/10/04 10:21:11;;;;;;;2.73;1.20;;;17.30;97.20;19.40;97433.00;;;;5042383;28;20189;-79
2022/10/04 10:24:28;;;;;;;2.90;1.50;;;17.40;97.10;19.80;97433.00;;;;5036073;28;20204;-79
2022/10/04 10:27:47;;;;;;;1.77;1.27;;;17.60;96.10;20.00;97436.00;;;;5039123;28;20760;-79
2022/10/04 10:30:51;;;;;;;3.43;1.80;;;17.90;97.00;20.00;97429.00;;;;5032075;28;20213;-78
2022/10/04 10:34:24;;;;;;;2.17;1.97;;;18.20;95.40;19.60;97425.00;;;;5029245;28;20197;-77
2022/10/04 10:37:23;;;;;;;1.40;1.20;;;18.40;93.50;20.10;97427.00;;;;5029327;28;20217;-77
2022/10/04 10:41:19;;;;;;;3.90;1.03;;;18.30;92.80;21.50;97431.00;;;;5029987;28;20650;-77
2022/10/04 10:44:29;;;;;;;2.27;1.13;;;18.80;94.40;21.00;97419.00;;;;4982032;28;20677;-77
2022/10/04 10:47:35;;;;;;;0.93;0.80;;;19.30;91.80;22.60;97416.00;;;;5028765;28;20212;-77
2022/10/04 10:51:00;;;;;;;1.07;0.90;;;19.80;92.10;23.10;97423.00;;;;5026305;28;20219;-77
2022/10/04 10:54:30;;;;;;;1.97;1.03;;;20.40;91.40;23.30;97428.00;;;;5027993;28;20236;-78
2022/10/04 10:57:47;;;;;;;3.40;1.30;;;20.90;86.40;22.60;97417.00;;;;5033807;28;20250;-77
2022/10/04 11:00:50;;;;;;;1.70;1.00;;;21.10;84.00;21.00;97400.00;;;;5033060;28;20220;-71
2022/10/04 11:04:28;;;;;;;5.20;1.00;;;20.90;77.00;21.60;97420.00;;;;5023390;28;20197;-74
2022/10/04 11:07:51;;;;;;;1.77;1.10;;;20.40;80.50;21.60;97412.00;;;;5021135;28;20203;-77
2022/10/04 11:11:16;;;;;;;1.57;0.90;;;20.50;80.50;20.10;97398.00;;;;5037888;28;20240;-73
2022/10/04 11:14:32;;;;;;;0.80;0.80;;;19.80;76.30;20.90;97411.00;;;;5037501;28;20213;-78
2022/10/04 11:18:26;;;;;;;3.73;0.93;;;19.40;77.70;22.70;97424.00;;;;5032436;28;20201;-76
2022/10/04 11:22:06;;;;;;;3.93;0.87;;;19.90;81.70;22.70;97418.00;;;;5001049;28;20193;-78
2022/10/04 11:25:40;;;;;;;0.83;0.83;;;20.50;76.10;21.20;97413.00;;;;5020180;28;20261;-75
2022/10/04 11:28:38;;;;;;;1.60;1.30;;;20.70;72.30;23.40;97411.00;;;;5021712;28;20225;-78
2022/10/04 11:32:19;;;;;;;1.53;0.87;;;21.00;76.80;22.50;97406.00;;;;5027828;28;20896;-77
2022/10/04 11:35:53;;;;;;;1.33;1.23;;;21.40;73.30;22.00;97403.00;;;;5032294;28;20213;-78
2022/10/04 11:38:56;;;;;;;2.67;1.30;;;21.50;72.30;22.10;97397.00;;;;5029378;28;20232;-75
2022/10/04 11:41:55;;;;;;;1.67;0.90;;;21.20;69.70;23.00;97401.00;;;;5028136;28;20197;-76
2022/10/04 11:45:32;;;;;;;2.80;1.20;;;21.30;71.40;21.80;97402.00;;;;5038375;28;20208;-71
2022/10/04 11:48:35;;;;;;;1.70;0.87;;;21.30;67.00;21.20;97393.00;;;;5030822;28;20226;-76
2022/10/04 11:52:07;;;;;;;1.90;1.10;;;20.70;69.80;22.00;97400.00;;;;5026835;28;20205;-76
2022/10/04 11:55:41;;;;;;;1.00;0.97;;;20.60;67.80;24.00;97405.00;;;;5027993;28;20616;-75
2022/10/04 11:58:47;;;;;;;2.80;1.30;;;21.10;71.20;24.70;97402.00;;;;5026827;28;20318;-76
2022/10/04 12:02:07;;;;;;;2.37;2.00;;;21.80;70.80;25.80;97398.00;;;;5037098;28;20219;-76
2022/10/04 12:05:48;;;;;;;3.30;1.33;;;22.60;70.70;26.70;97399.00;;;;5014081;28;20803;-75
2022/10/04 12:08:54;;;;;;;3.67;1.60;;;23.50;67.00;27.20;97395.00;;;;5026305;28;20449;-76
2022/10/04 12:12:36;;;;;;;1.10;0.93;;;24.30;65.00;27.90;97388.00;;;;5022840;28;20996;-76
2022/10/04 12:15:48;;;;;;;1.67;1.27;;;24.90;64.70;28.10;97395.00;;;;5030947;28;20245;-76
2022/10/04 12:19:28;;;;;;;1.30;0.85;;;25.50;61.50;27.70;97383.00;;;;5028578;28;20231;-75
2022/10/04 12:22:59;;;;;;;5.00;1.30;;;25.80;59.50;27.40;97385.00;;;;5026306;28;20240;-76
2022/10/04 12:26:31;;;;;;;3.15;1.05;;;26.30;57.20;28.20;97383.00;;;;5029498;28;20227;-77
2022/10/04 12:29:55;;;;;;;1.77;1.00;;;26.40;56.80;28.70;97383.00;;;;5028454;28;20670;-77
2022/10/04 12:33:00;;;;;;;1.20;0.73;;;26.40;56.20;28.40;97377.00;;;;5025866;28;20211;-76
2022/10/04 12:36:04;;;;;;;1.85;0.70;;;26.60;53.90;29.20;97376.00;;;;5024633;28;20219;-76
2022/10/04 12:39:13;;;;;;;0.82;0.80;;;26.70;54.20;29.50;97387.00;;;;5019973;28;20253;-76
2022/10/04 12:42:22;;;;;;;1.45;0.80;;;27.00;53.10;29.10;97378.00;;;;5023867;28;20698;-76
2022/10/04 12:45:38;;;;;;;5.25;1.45;;;27.20;53.00;29.00;97371.00;;;;5030486;28;20231;-77
2022/10/04 12:48:52;;;;;;;1.80;1.23;;;27.20;52.70;30.00;97375.00;;;;5027056;28;20235;-77
2022/10/04 12:51:53;;;;;;;0.95;0.75;;;27.40;53.10;30.00;97374.00;;;;5027174;28;20757;-78
2022/10/04 12:54:46;;;;;;;1.77;0.90;;;27.60;53.50;29.50;97366.00;;;;5030884;28;20196;-78
2022/10/04 12:57:48;;;;;;;1.05;0.70;;;27.80;52.00;29.00;97368.00;;;;5030778;28;20197;-78
2022/10/04 13:00:44;;;;;;;3.25;0.90;;;27.50;51.60;29.50;97368.00;;;;5067564;22;20260;-71
2022/10/04 13:04:04;;;;;;;2.45;1.05;;;27.60;51.00;30.20;97363.00;;;;5048031;28;20200;-71
2022/10/04 13:07:30;;;;;;;0.70;0.70;;;27.70;50.50;30.00;97364.00;;;;5036610;28;20588;-71
2022/10/04 13:10:35;;;;;;;0.90;0.80;;;28.00;51.10;27.80;97362.00;;;;5052373;28;20386;-71
2022/10/04 13:14:26;;;;;;;0.80;0.80;;;27.80;48.90;27.90;97359.00;;;;5047267;28;20552;-71
2022/10/04 13:17:30;;;;;;;1.02;0.77;;;27.20;49.10;29.80;97356.00;;;;4986305;28;20241;-72
2022/10/04 13:20:41;;;;;;;0.80;0.60;;;27.30;50.00;30.80;97368.00;;;;4985521;28;20226;-71
2022/10/04 13:23:48;;;;;;;;;;;27.80;50.50;31.30;97363.00;;;;5040563;28;20518;-71
2022/10/04 13:26:47;;;;;;;1.17;0.90;;;28.30;50.50;31.30;97363.00;;;;5047249;28;20198;-71
2022/10/04 13:29:48;;;;;;;0.90;0.80;;;28.60;50.00;31.70;97371.00;;;;5040903;28;20232;-71
2022/10/04 13:32:50;;;;;;;1.00;0.85;;;29.00;49.30;30.80;97368.00;;;;5049427;28;20200;-71
2022/10/04 13:35:50;;;;;;;2.47;0.90;;;29.00;48.40;31.10;97373.00;;;;5046726;28;20257;-71
2022/10/04 13:39:39;;;;;;;1.27;0.80;;;28.90;48.30;30.80;97373.00;;;;5045437;28;20208;-72
2022/10/04 13:43:05;;;;;;;1.40;1.00;;;28.90;47.50;31.00;97369.00;;;;5018404;28;20264;-71
2022/10/04 13:46:08;;;;;;;0.95;0.70;;;28.90;46.90;30.70;97377.00;;;;5048471;28;20282;-71
2022/10/04 13:49:19;;;;;;;1.00;0.80;;;28.90;47.00;31.20;97370.00;;;;5047833;28;20239;-72
2022/10/04 13:58:51;;;;;;;2.13;0.70;;;29.00;48.20;31.10;97376.00;;;;5044099;28;20236;-71
2022/10/04 14:02:27;;;;;;;1.45;1.30;;;29.10;48.20;31.40;97382.00;;;;5046174;28;20254;-71
2022/10/04 14:06:06;;;;;;;1.45;0.98;;;29.00;47.90;30.30;97382.00;;;;5032444;28;20679;-71
2022/10/04 14:09:38;;;;;;;1.38;0.82;;;29.00;47.40;30.50;97391.00;;;;5045574;28;20301;-71
2022/10/04 14:13:18;;;;;;;1.42;0.98;;;28.80;47.90;30.70;97390.00;;;;4988555;28;20238;-71